createdAt,value
2019-03-29T00:01:56.428Z,1.38
2019-03-29T00:04:22.598Z,1.41
2019-03-29T00:06:48.758Z,1.43
2019-03-29T00:09:14.901Z,1.45
2019-03-29T00:11:41.023Z,1.44
2019-03-29T00:14:07.267Z,1.42
2019-03-29T00:16:33.436Z,1.44
2019-03-29T00:18:59.571Z,1.39
2019-03-29T00:21:25.699Z,1.40
2019-03-29T00:24:05.957Z,1.42
2019-03-29T00:26:20.016Z,1.44
2019-03-29T00:28:46.157Z,1.46
2019-03-29T00:31:12.330Z,1.45
2019-03-29T00:33:38.455Z,1.44
2019-03-29T00:36:04.601Z,1.41
2019-03-29T00:38:30.837Z,1.40
2019-03-29T00:40:57.024Z,1.38
2019-03-29T00:43:23.062Z,1.41
2019-03-29T00:45:49.622Z,1.29
2019-03-29T00:48:15.804Z,1.20
2019-03-29T00:50:41.930Z,1.18
2019-03-29T00:53:08.951Z,1.00
2019-03-29T00:55:35.325Z,1.01
2019-03-29T00:58:01.451Z,1.09
2019-03-29T01:00:31.134Z,1.14
2019-03-29T01:02:55.995Z,1.19
2019-03-29T01:05:22.158Z,1.23
2019-03-29T01:07:48.283Z,1.27
2019-03-29T01:10:14.440Z,1.29
2019-03-29T01:12:40.665Z,1.30
2019-03-29T01:15:08.985Z,1.33
2019-03-29T01:17:35.291Z,1.29
2019-03-29T01:20:02.157Z,1.25
2019-03-29T01:22:28.281Z,1.23
2019-03-29T01:24:54.417Z,1.27
2019-03-29T01:27:20.491Z,1.32
2019-03-29T01:29:46.602Z,1.35
2019-03-29T01:32:12.774Z,1.35
2019-03-29T01:34:38.900Z,1.35
2019-03-29T01:37:05.105Z,1.35
2019-03-29T01:39:31.239Z,1.32
2019-03-29T01:41:57.366Z,1.27
2019-03-29T01:44:23.496Z,1.19
2019-03-29T01:46:49.622Z,1.03
2019-03-29T01:49:16.852Z,0.77
2019-03-29T01:51:42.994Z,0.77
2019-03-29T01:54:09.152Z,0.81
2019-03-29T01:56:35.283Z,0.87
2019-03-29T01:59:01.436Z,0.96
2019-03-29T02:01:28.383Z,1.01
2019-03-29T02:03:54.700Z,1.06
2019-03-29T02:06:20.929Z,1.11
2019-03-29T02:08:47.113Z,1.14
2019-03-29T02:11:13.380Z,1.11
2019-03-29T02:13:40.380Z,0.97
2019-03-29T02:16:06.535Z,0.95
2019-03-29T02:18:32.674Z,0.80
2019-03-29T02:20:58.822Z,0.85
2019-03-29T02:23:24.972Z,0.83
2019-03-29T02:25:51.092Z,0.85
2019-03-29T02:28:17.258Z,0.80
2019-03-29T02:30:43.504Z,0.82
2019-03-29T02:33:09.622Z,0.87
2019-03-29T02:35:35.747Z,0.92
2019-03-29T02:38:01.898Z,0.96
2019-03-29T02:40:28.038Z,0.98
2019-03-29T02:42:54.165Z,0.98
2019-03-29T02:45:20.217Z,1.00
2019-03-29T02:47:47.760Z,1.01
2019-03-29T02:50:14.498Z,1.02
2019-03-29T02:52:40.654Z,1.02
2019-03-29T02:55:07.551Z,1.03
2019-03-29T02:57:33.680Z,1.02
2019-03-29T02:59:59.797Z,0.97
2019-03-29T03:02:26.699Z,0.95
2019-03-29T03:04:53.048Z,0.96
2019-03-29T03:07:19.192Z,0.90
2019-03-29T03:09:45.365Z,0.82
2019-03-29T03:12:11.605Z,0.88
2019-03-29T03:14:37.763Z,0.97
2019-03-29T03:17:03.894Z,1.00
2019-03-29T03:19:30.030Z,1.03
2019-03-29T03:22:03.036Z,1.03
2019-03-29T03:24:26.607Z,1.01
2019-03-29T03:26:52.731Z,1.02
2019-03-29T03:29:18.824Z,0.99
2019-03-29T03:31:45.043Z,0.95
2019-03-29T03:34:11.225Z,0.98
2019-03-29T03:36:37.253Z,1.01
2019-03-29T03:39:06.111Z,0.99
2019-03-29T03:41:32.260Z,0.99
2019-03-29T03:43:58.491Z,1.01
2019-03-29T03:46:24.648Z,1.03
2019-03-29T03:48:50.771Z,1.03
2019-03-29T03:51:17.135Z,1.01
2019-03-29T03:53:43.420Z,1.02
2019-03-29T03:56:10.626Z,1.01
2019-03-29T03:58:37.816Z,1.00
2019-03-29T04:01:04.037Z,0.90
2019-03-29T04:03:30.174Z,0.82
2019-03-29T04:05:56.657Z,0.75
2019-03-29T04:08:22.811Z,0.67
2019-03-29T04:10:48.932Z,0.65
2019-03-29T04:13:15.077Z,0.69
2019-03-29T04:15:41.284Z,0.66
2019-03-29T04:18:07.440Z,0.64
2019-03-29T04:20:33.471Z,0.66
2019-03-29T04:22:59.502Z,0.73
2019-03-29T04:25:25.645Z,0.79
2019-03-29T04:27:51.798Z,0.81
2019-03-29T04:30:17.839Z,0.84
2019-03-29T04:32:43.979Z,0.86
2019-03-29T04:35:10.096Z,0.88
2019-03-29T04:37:36.134Z,0.90
2019-03-29T04:40:07.952Z,0.88
2019-03-29T04:42:31.508Z,0.76
2019-03-29T04:44:59.837Z,0.71
2019-03-29T04:47:25.626Z,0.69
2019-03-29T04:49:51.909Z,0.67
2019-03-29T04:52:18.036Z,0.66
2019-03-29T04:54:44.321Z,0.68
2019-03-29T04:57:10.287Z,0.64
2019-03-29T04:59:36.442Z,0.66
2019-03-29T05:02:02.765Z,0.70
2019-03-29T05:04:28.923Z,0.74
2019-03-29T05:06:55.086Z,0.81
2019-03-29T05:09:21.212Z,0.84
2019-03-29T05:11:47.346Z,0.85
2019-03-29T05:14:13.488Z,0.88
2019-03-29T05:16:39.622Z,0.90
2019-03-29T05:19:05.813Z,0.91
2019-03-29T05:21:31.930Z,0.92
2019-03-29T05:23:58.066Z,0.93
2019-03-29T05:26:25.573Z,0.87
2019-03-29T05:28:51.872Z,0.60
2019-03-29T05:31:17.919Z,0.59
2019-03-29T05:33:46.488Z,0.58
2019-03-29T05:36:12.755Z,0.63
2019-03-29T05:38:38.800Z,0.69
2019-03-29T05:41:05.037Z,0.77
2019-03-29T05:43:31.203Z,0.84
2019-03-29T05:45:57.502Z,0.82
2019-03-29T05:48:23.884Z,0.84
2019-03-29T05:50:49.959Z,0.80
2019-03-29T05:53:16.290Z,0.84
2019-03-29T05:55:48.110Z,0.90
2019-03-29T05:58:13.104Z,0.95
2019-03-29T06:00:39.408Z,0.92
2019-03-29T06:03:05.554Z,0.82
2019-03-29T06:05:31.740Z,0.72
2019-03-29T06:07:58.026Z,0.76
2019-03-29T06:10:24.241Z,0.86
2019-03-29T06:12:50.477Z,0.91
2019-03-29T06:15:16.622Z,0.88
2019-03-29T06:17:48.854Z,0.83
2019-03-29T06:20:11.724Z,0.82
2019-03-29T06:22:37.850Z,0.72
2019-03-29T06:25:06.186Z,0.71
2019-03-29T06:27:32.434Z,0.69
2019-03-29T06:29:58.580Z,0.66
2019-03-29T06:32:24.676Z,0.69
2019-03-29T06:34:50.885Z,0.71
2019-03-29T06:37:19.318Z,0.71
2019-03-29T06:39:46.865Z,0.73
2019-03-29T06:42:14.353Z,0.79
2019-03-29T06:44:40.464Z,0.79
2019-03-29T06:47:06.526Z,0.86
2019-03-29T06:49:32.658Z,0.77
2019-03-29T06:51:58.778Z,0.88
2019-03-29T06:54:25.086Z,0.99
2019-03-29T06:56:51.371Z,1.09
2019-03-29T06:59:17.398Z,1.21
2019-03-29T07:01:46.345Z,1.29
2019-03-29T07:04:13.427Z,1.35
2019-03-29T07:06:39.551Z,1.45
2019-03-29T07:09:05.739Z,1.48
2019-03-29T07:11:31.767Z,1.55
2019-03-29T07:13:58.265Z,1.65
2019-03-29T07:16:24.424Z,1.70
2019-03-29T07:18:50.469Z,1.75
2019-03-29T07:21:21.822Z,1.85
2019-03-29T07:23:44.635Z,1.91
2019-03-29T07:26:10.756Z,1.98
2019-03-29T07:28:36.884Z,2.03
2019-03-29T07:31:03.067Z,2.12
2019-03-29T07:33:29.746Z,2.24
2019-03-29T07:35:55.951Z,2.35
2019-03-29T07:38:22.132Z,2.44
2019-03-29T07:40:48.274Z,2.50
2019-03-29T07:43:14.431Z,2.57
2019-03-29T07:45:43.430Z,2.66
2019-03-29T07:48:09.711Z,2.76
2019-03-29T07:50:37.143Z,2.87
2019-03-29T07:53:06.194Z,2.93
2019-03-29T07:55:32.441Z,3.00
2019-03-29T07:57:58.811Z,3.11
2019-03-29T08:00:25.045Z,3.16
2019-03-29T08:02:51.163Z,3.28
2019-03-29T08:05:18.097Z,3.44
2019-03-29T08:07:45.919Z,3.54
2019-03-29T08:10:24.178Z,3.67
2019-03-29T08:12:41.265Z,3.81
2019-03-29T08:15:09.747Z,3.89
2019-03-29T08:17:37.985Z,4.03
2019-03-29T08:20:36.343Z,4.20
2019-03-29T08:25:24.666Z,4.51
2019-03-29T08:28:21.251Z,4.65
2019-03-29T08:30:34.705Z,4.72
2019-03-29T08:33:13.130Z,4.91
2019-03-29T08:35:39.419Z,5.14
2019-03-29T08:38:06.376Z,5.27
2019-03-29T08:40:32.791Z,5.41
2019-03-29T08:42:59.036Z,5.55
2019-03-29T08:45:27.137Z,5.97
2019-03-29T08:47:53.422Z,6.11
2019-03-29T08:50:19.673Z,6.16
2019-03-29T08:52:53.105Z,6.23
2019-03-29T08:55:19.251Z,6.50
2019-03-29T08:57:45.539Z,6.64
2019-03-29T09:00:11.966Z,6.99
2019-03-29T09:02:38.283Z,7.32
2019-03-29T09:05:04.633Z,7.55
2019-03-29T09:07:44.054Z,7.80
2019-03-29T09:09:59.016Z,7.93
2019-03-29T09:12:25.170Z,7.94
2019-03-29T09:14:51.193Z,8.01
2019-03-29T09:17:17.404Z,8.05
2019-03-29T09:19:43.510Z,8.09
2019-03-29T09:22:09.740Z,8.13
2019-03-29T09:24:35.883Z,8.16
2019-03-29T09:27:02.003Z,8.18
2019-03-29T09:29:28.227Z,8.19
2019-03-29T09:31:54.590Z,8.27
2019-03-29T09:34:23.501Z,8.32
2019-03-29T09:36:49.694Z,8.34
2019-03-29T09:39:15.861Z,8.39
2019-03-29T09:41:42.077Z,8.55
2019-03-29T09:44:08.393Z,8.55
2019-03-29T09:46:34.711Z,8.58
2019-03-29T09:49:00.871Z,8.60
2019-03-29T09:51:27.029Z,8.58
2019-03-29T09:53:53.178Z,8.60
2019-03-29T09:56:21.423Z,8.71
2019-03-29T09:58:47.724Z,8.74
2019-03-29T10:01:22.950Z,8.76
2019-03-29T10:03:51.342Z,8.81
2019-03-29T10:06:17.473Z,8.84
2019-03-29T10:08:43.645Z,8.90
2019-03-29T10:11:09.880Z,8.93
2019-03-29T10:13:36.003Z,9.03
2019-03-29T10:16:02.156Z,9.06
2019-03-29T10:18:34.578Z,9.10
2019-03-29T10:21:00.885Z,9.13
2019-03-29T10:23:32.978Z,9.17
2019-03-29T10:26:06.074Z,9.21
2019-03-29T10:28:32.570Z,9.28
2019-03-29T10:30:58.747Z,9.31
2019-03-29T10:33:25.061Z,9.36
2019-03-29T10:35:52.722Z,9.39
2019-03-29T10:38:19.216Z,9.48
2019-03-29T10:40:45.353Z,9.47
2019-03-29T10:43:11.465Z,9.55
2019-03-29T10:45:40.283Z,9.57
2019-03-29T10:48:05.643Z,9.64
2019-03-29T10:50:31.774Z,9.73
2019-03-29T10:52:57.905Z,9.79
2019-03-29T10:55:26.075Z,9.88
2019-03-29T10:57:55.373Z,9.90
2019-03-29T11:00:23.555Z,9.92
2019-03-29T11:02:49.851Z,9.96
2019-03-29T11:05:16.097Z,9.99
2019-03-29T11:07:42.336Z,10.07
2019-03-29T11:10:12.187Z,10.06
2019-03-29T11:12:38.407Z,10.10
2019-03-29T11:15:06.753Z,10.19
2019-03-29T11:17:33.239Z,10.22
2019-03-29T11:19:59.369Z,10.23
2019-03-29T11:22:25.584Z,10.17
2019-03-29T11:24:51.712Z,10.22
2019-03-29T11:27:17.981Z,10.33
2019-03-29T11:29:49.213Z,10.36
2019-03-29T11:32:17.881Z,10.42
2019-03-29T11:34:44.001Z,10.39
2019-03-29T11:37:10.321Z,10.43
2019-03-29T11:39:36.559Z,10.47
2019-03-29T11:42:03.662Z,10.51
2019-03-29T11:44:30.360Z,10.50
2019-03-29T11:46:56.684Z,10.58
2019-03-29T11:49:22.702Z,10.57
2019-03-29T11:51:48.823Z,10.65
2019-03-29T11:54:14.979Z,10.72
2019-03-29T11:56:41.101Z,10.69
2019-03-29T11:59:07.270Z,10.79
2019-03-29T12:01:33.455Z,10.86
2019-03-29T12:03:59.679Z,10.98
2019-03-29T12:06:25.807Z,11.13
2019-03-29T12:08:51.944Z,11.23
2019-03-29T12:11:18.076Z,11.23
2019-03-29T12:13:44.648Z,11.29
2019-03-29T12:16:10.777Z,11.38
2019-03-29T12:18:38.432Z,11.42
2019-03-29T12:21:04.556Z,11.46
2019-03-29T12:23:30.758Z,11.52
2019-03-29T12:25:56.876Z,11.46
2019-03-29T12:28:22.999Z,11.50
2019-03-29T12:30:49.223Z,11.58
2019-03-29T12:33:15.231Z,11.56
2019-03-29T12:35:41.418Z,11.60
2019-03-29T12:38:07.552Z,11.54
2019-03-29T12:40:33.602Z,11.44
2019-03-29T12:42:59.730Z,11.54
2019-03-29T12:45:25.900Z,11.53
2019-03-29T12:47:51.987Z,11.55
2019-03-29T12:50:18.152Z,11.53
2019-03-29T12:52:44.292Z,11.58
2019-03-29T12:55:10.432Z,11.59
2019-03-29T12:57:38.885Z,11.61
2019-03-29T13:00:06.298Z,11.65
2019-03-29T13:02:34.492Z,11.73
2019-03-29T13:05:00.466Z,11.77
2019-03-29T13:07:26.513Z,11.78
2019-03-29T13:09:53.199Z,11.91
2019-03-29T13:12:19.330Z,11.94
2019-03-29T13:14:45.472Z,11.96
2019-03-29T13:17:11.625Z,11.98
2019-03-29T13:19:38.822Z,11.94
2019-03-29T13:22:05.907Z,11.85
2019-03-29T13:24:31.927Z,11.92
2019-03-29T13:26:57.944Z,11.99
2019-03-29T13:29:24.127Z,12.02
2019-03-29T13:31:50.233Z,12.02
2019-03-29T13:34:16.368Z,12.07
2019-03-29T13:36:42.421Z,12.08
2019-03-29T13:39:08.965Z,12.12
2019-03-29T13:41:35.090Z,12.18
2019-03-29T13:44:01.217Z,12.20
2019-03-29T13:46:27.350Z,12.14
2019-03-29T13:48:53.371Z,12.16
2019-03-29T13:51:19.506Z,12.20
2019-03-29T13:53:45.523Z,12.22
2019-03-29T13:56:11.717Z,12.23
2019-03-29T13:58:37.845Z,12.23
2019-03-29T14:01:04.001Z,12.29
2019-03-29T14:03:30.045Z,12.32
2019-03-29T14:05:56.168Z,12.34
2019-03-29T14:08:22.295Z,12.31
2019-03-29T14:10:48.411Z,12.26
2019-03-29T14:13:14.565Z,12.21
2019-03-29T14:15:40.592Z,12.10
2019-03-29T14:18:06.751Z,12.13
2019-03-29T14:20:33.019Z,12.21
2019-03-29T14:23:00.467Z,12.15
2019-03-29T14:25:26.583Z,12.06
2019-03-29T14:27:52.627Z,12.10
2019-03-29T14:30:18.873Z,12.08
2019-03-29T14:32:45.453Z,12.02
2019-03-29T14:35:11.587Z,11.97
2019-03-29T14:37:37.610Z,11.91
2019-03-29T14:40:06.164Z,11.94
2019-03-29T14:42:33.171Z,11.93
2019-03-29T14:44:59.324Z,11.93
2019-03-29T14:47:38.154Z,11.85
2019-03-29T14:49:53.379Z,11.81
2019-03-29T14:52:19.512Z,11.79
2019-03-29T14:54:45.546Z,11.75
2019-03-29T14:57:11.590Z,11.73
2019-03-29T14:59:37.724Z,11.70
2019-03-29T15:02:03.955Z,11.68
2019-03-29T15:04:30.087Z,11.63
2019-03-29T15:06:56.206Z,11.64
2019-03-29T15:09:22.386Z,11.58
2019-03-29T15:11:48.471Z,11.54
2019-03-29T15:14:14.512Z,11.50
2019-03-29T15:16:40.629Z,11.55
2019-03-29T15:19:09.054Z,11.57
2019-03-29T15:21:35.289Z,11.51
2019-03-29T15:24:01.422Z,11.49
2019-03-29T15:26:27.545Z,11.45
2019-03-29T15:28:53.662Z,11.44
2019-03-29T15:31:19.814Z,11.44
2019-03-29T15:33:45.963Z,11.39
2019-03-29T15:36:12.179Z,11.36
2019-03-29T15:38:38.290Z,11.31
2019-03-29T15:41:04.504Z,11.29
2019-03-29T15:43:30.640Z,11.25
2019-03-29T15:45:56.760Z,11.21
2019-03-29T15:48:22.886Z,11.16
2019-03-29T15:50:49.016Z,11.13
2019-03-29T15:53:15.144Z,11.07
2019-03-29T15:55:41.270Z,11.07
2019-03-29T15:58:07.360Z,11.04
2019-03-29T16:00:33.485Z,11.03
2019-03-29T16:02:59.600Z,10.98
2019-03-29T16:05:25.842Z,10.94
2019-03-29T16:07:51.974Z,10.83
2019-03-29T16:10:18.130Z,10.77
2019-03-29T16:12:44.264Z,10.75
2019-03-29T16:15:10.395Z,10.74
2019-03-29T16:17:36.517Z,10.73
2019-03-29T16:20:04.273Z,10.56
2019-03-29T16:22:30.400Z,10.56
2019-03-29T16:24:56.559Z,10.58
2019-03-29T16:27:25.102Z,10.57
2019-03-29T16:29:50.651Z,10.61
2019-03-29T16:32:16.772Z,10.53
2019-03-29T16:34:46.962Z,10.48
2019-03-29T16:37:13.353Z,10.50
2019-03-29T16:39:39.643Z,10.54
2019-03-29T16:42:05.796Z,10.51
2019-03-29T16:44:32.061Z,10.28
2019-03-29T16:46:58.338Z,10.21
2019-03-29T16:49:26.453Z,10.23
2019-03-29T16:51:52.700Z,10.27
2019-03-29T16:54:19.403Z,10.30
2019-03-29T16:56:45.610Z,10.26
2019-03-29T16:59:11.833Z,10.27
2019-03-29T17:01:37.861Z,10.26
2019-03-29T17:04:04.015Z,10.25
2019-03-29T17:06:31.747Z,10.22
2019-03-29T17:08:57.969Z,10.20
2019-03-29T17:11:24.283Z,10.21
2019-03-29T17:13:50.466Z,10.20
2019-03-29T17:16:29.433Z,10.17
2019-03-29T17:18:46.307Z,10.11
2019-03-29T17:21:12.635Z,10.02
2019-03-29T17:23:40.334Z,9.91
2019-03-29T17:26:11.906Z,9.76
2019-03-29T17:28:38.135Z,9.47
2019-03-29T17:31:06.246Z,9.41
2019-03-29T17:33:32.386Z,9.34
2019-03-29T17:35:58.653Z,9.31
2019-03-29T17:38:24.803Z,9.28
2019-03-29T17:40:50.927Z,9.15
2019-03-29T17:43:17.289Z,8.96
2019-03-29T17:45:43.571Z,8.85
2019-03-29T17:48:09.870Z,8.73
2019-03-29T17:50:35.993Z,8.69
2019-03-29T17:53:02.117Z,8.62
2019-03-29T17:55:31.566Z,8.56
2019-03-29T17:57:56.488Z,8.39
2019-03-29T18:00:27.208Z,8.28
2019-03-29T18:02:53.504Z,8.20
2019-03-29T18:05:19.764Z,8.13
2019-03-29T18:07:45.902Z,8.00
2019-03-29T18:10:12.292Z,7.94
2019-03-29T18:12:42.915Z,7.90
2019-03-29T18:15:09.534Z,7.78
2019-03-29T18:17:35.635Z,7.71
2019-03-29T18:20:03.388Z,7.48
2019-03-29T18:22:31.563Z,7.46
2019-03-29T18:25:00.908Z,7.49
2019-03-29T18:27:26.980Z,7.41
2019-03-29T18:29:53.130Z,7.28
2019-03-29T18:32:19.377Z,7.30
2019-03-29T18:34:45.534Z,7.27
2019-03-29T18:37:13.017Z,7.19
2019-03-29T18:39:39.279Z,7.11
2019-03-29T18:42:05.483Z,7.02
2019-03-29T18:44:31.620Z,6.99
2019-03-29T18:46:57.856Z,6.91
2019-03-29T18:49:23.999Z,6.88
2019-03-29T18:51:50.227Z,6.80
2019-03-29T18:54:16.605Z,6.80
2019-03-29T18:56:42.870Z,6.72
2019-03-29T18:59:09.157Z,6.67
2019-03-29T19:01:35.411Z,6.67
2019-03-29T19:04:06.029Z,6.51
2019-03-29T19:06:29.826Z,6.41
2019-03-29T19:08:58.067Z,6.40
2019-03-29T19:11:26.243Z,6.29
2019-03-29T19:13:52.543Z,6.24
2019-03-29T19:16:18.799Z,6.18
2019-03-29T19:18:44.947Z,6.04
2019-03-29T19:21:11.273Z,6.01
2019-03-29T19:23:37.604Z,5.96
2019-03-29T19:26:06.783Z,5.88
2019-03-29T19:28:42.052Z,5.83
2019-03-29T19:31:06.587Z,5.81
2019-03-29T19:33:32.877Z,5.75
2019-03-29T19:36:02.903Z,5.73
2019-03-29T19:38:41.014Z,5.65
2019-03-29T19:41:07.148Z,5.63
2019-03-29T19:43:33.427Z,5.61
2019-03-29T19:45:59.553Z,5.57
2019-03-29T19:48:25.861Z,5.53
2019-03-29T19:50:51.998Z,5.48
2019-03-29T19:53:18.154Z,5.41
2019-03-29T19:55:47.189Z,5.32
2019-03-29T19:58:13.412Z,5.26
2019-03-29T20:00:40.350Z,5.23
2019-03-29T20:03:06.508Z,5.20
2019-03-29T20:05:32.637Z,5.15
2019-03-29T20:08:10.976Z,5.14
2019-03-29T20:10:37.185Z,5.07
2019-03-29T20:13:03.470Z,5.03
2019-03-29T20:15:29.786Z,4.99
2019-03-29T20:17:55.995Z,4.89
2019-03-29T20:20:29.135Z,4.84
2019-03-29T20:22:56.276Z,4.81
2019-03-29T20:25:23.212Z,4.79
2019-03-29T20:27:49.492Z,4.73
2019-03-29T20:30:16.054Z,4.66
2019-03-29T20:32:43.245Z,4.58
2019-03-29T20:35:09.380Z,4.52
2019-03-29T20:37:35.544Z,4.44
2019-03-29T20:40:02.488Z,4.36
2019-03-29T20:45:15.591Z,4.29
2019-03-29T20:47:42.724Z,4.28
2019-03-29T20:51:08.757Z,4.26
2019-03-29T20:53:39.168Z,4.23
2019-03-29T20:56:06.693Z,4.20
2019-03-29T20:58:33.178Z,4.13
2019-03-29T21:01:01.352Z,4.12
2019-03-29T21:03:27.636Z,4.10
2019-03-29T21:05:54.022Z,4.08
2019-03-29T21:08:20.343Z,4.05
2019-03-29T21:10:55.577Z,4.02
2019-03-29T21:13:16.572Z,3.95
2019-03-29T21:15:44.659Z,3.90
2019-03-29T21:18:10.838Z,3.82
2019-03-29T21:20:37.118Z,3.77
2019-03-29T21:23:03.417Z,3.73
2019-03-29T21:25:29.559Z,3.70
2019-03-29T21:27:55.787Z,3.64
2019-03-29T21:30:25.871Z,3.61
2019-03-29T21:32:53.835Z,3.59
2019-03-29T21:35:20.104Z,3.58
2019-03-29T21:37:48.427Z,3.54
2019-03-29T21:40:15.220Z,3.48
2019-03-29T21:42:41.463Z,3.41
2019-03-29T21:45:08.270Z,3.35
2019-03-29T21:47:37.950Z,3.32
2019-03-29T21:50:09.213Z,3.29
2019-03-29T21:52:39.054Z,3.25
2019-03-29T21:55:05.818Z,3.22
2019-03-29T21:57:31.987Z,3.21
2019-03-29T21:59:58.186Z,3.17
2019-03-29T22:02:24.469Z,3.14
2019-03-29T22:04:50.684Z,3.14
2019-03-29T22:07:18.727Z,3.11
2019-03-29T22:09:44.900Z,3.06
2019-03-29T22:12:11.158Z,3.03
2019-03-29T22:14:37.284Z,3.03
2019-03-29T22:17:03.558Z,3.02
2019-03-29T22:19:29.725Z,2.99
2019-03-29T22:21:55.883Z,2.93
2019-03-29T22:24:22.047Z,2.89
2019-03-29T22:26:48.167Z,2.88
2019-03-29T22:29:14.201Z,2.88
2019-03-29T22:31:40.278Z,2.74
2019-03-29T22:34:06.427Z,2.65
2019-03-29T22:36:32.475Z,2.64
2019-03-29T22:38:58.597Z,2.65
2019-03-29T22:41:24.753Z,2.61
2019-03-29T22:43:50.890Z,2.51
2019-03-29T22:46:18.059Z,2.48
2019-03-29T22:48:52.084Z,2.45
2019-03-29T22:51:12.002Z,2.48
2019-03-29T22:53:38.130Z,2.50
2019-03-29T22:56:04.065Z,2.47
2019-03-29T22:58:30.089Z,2.48
2019-03-29T23:00:56.530Z,2.46
2019-03-29T23:03:22.691Z,2.44
2019-03-29T23:05:48.821Z,2.46
2019-03-29T23:08:14.944Z,2.41
2019-03-29T23:10:41.122Z,2.38
2019-03-29T23:13:07.237Z,2.35
2019-03-29T23:15:33.399Z,2.34
2019-03-29T23:17:59.522Z,2.31
2019-03-29T23:20:25.714Z,2.28
2019-03-29T23:22:51.843Z,2.24
2019-03-29T23:25:18.015Z,2.22
2019-03-29T23:27:44.046Z,2.21
2019-03-29T23:30:10.844Z,2.17
2019-03-29T23:32:36.984Z,2.17
2019-03-29T23:35:06.088Z,2.14
2019-03-29T23:37:32.259Z,2.12
2019-03-29T23:39:58.311Z,2.08
2019-03-29T23:42:24.474Z,2.06
2019-03-29T23:44:50.637Z,2.03
2019-03-29T23:47:16.655Z,2.00
2019-03-29T23:49:42.716Z,1.96
2019-03-29T23:52:08.832Z,1.95
2019-03-29T23:54:34.856Z,1.92
2019-03-29T23:57:00.994Z,1.92
2019-03-29T23:59:27.216Z,1.89
